Abbott, PA

11:30 AM EST on November 22, 2014 (GMT -0500)
Germania | Change Station
CLOSE
Current Station
Personal Weather Station
Location: Galeton, PA
Elevation: 2240 ft
Nearby Weather Stations
Active Advisory: Freezing Rain Advisory

Elev 2240 ft 41.66 °N, 77.67 °W | Updated 8 seconds ago

Partly Cloudy
Partly Cloudy
28.6 °F
Feels Like 21 °F
N
7.0
Wind Variable Wind from SSW
Gusts 12.0 mph

Today
High -- | Low -- °F
--% Chance of Precip.
Yesterday
High -- | Low -- °F
Precip. -- in
7:08 AM 4:45 PM
New Moon, 0% visible
Pressure 30.15 in
Visibility 10.0 miles
Clouds Mostly Cloudy 1800 ft
Mostly Cloudy 4600 ft
Overcast 6000 ft
Windchill 21 °F
Dew Point 14 °F
Humidity 55%
Rainfall 0.00 in
Snow Depth Not available.
UV 1 out of 12
Pollen .10 out of 12
Air Quality Not available.
Flu Activity Not available.
SPECI KELZ 221618Z AUTO 20011G18KT 10SM BKN018 BKN046 OVC060 02/M15 A3015 RMK AO2 T00171150

More Conditions Fewer Conditions

Pressure 30.15 in
Visibility 10.0 miles
Clouds Mostly Cloudy 1800 ft
Mostly Cloudy 4600 ft
Overcast 6000 ft
Windchill 21 °F
Dew Point 14 °F
Humidity 55%
Rainfall 0.00 in
Snow Depth Not available.
UV 1 out of 12
Pollen .10 out of 12
Air Quality Not available.
Flu Activity Not available.
SPECI KELZ 221618Z AUTO 20011G18KT 10SM BKN018 BKN046 OVC060 02/M15 A3015 RMK AO2 T00171150

More Conditions Fewer Conditions

10-Day Weather Forecast

Almanac

Astronomy

Nov. 22, 2014 Rise Set
Actual Time
Civil Twilight
Nautical Twilight
Astronomical Twilight
Moon
Length of Visible Light
Length of Day
Tomorrow will be .
, % of the Moon is Illuminated

Today's Extremes

State Highs State Lows

Community

WunderPhotos

Upload Photos

1,772,847 photos uploaded!

WunderBlogs® & News

Nearby

Air Quality

  Air Quality AQ Index Pollutant
Not available.

Snow Depth

Station Depth Elevation

Earthquake Activity

City Distance Mag. Time & Date
Minimum magnitude displayed is 2.5.

Coastal Water Temperatures

Place Temperature

Nearby Weather Stations